TUI509 EDDF-LEPA
Flight info
| Callsign | TUI509 |
|---|---|
| Flight time | 2h 0m |
| Altitude | 33000 |
| Route | ANEKI2L/18 ANEKI Y163 HERBI Y164 MOPAN DCT LUTIX DCT BENOT DCT NEMOS DCT GEVEA DCT INCUS DCT BALSI DCT RETNO DCT TUPOX DCT MTG DCT DIVKO DCT VATIR DCT PIVUS N852 VERSO L129 LUNIK LUNIK4M |
| Aircraft | B38M/M-SDE1FGHILORVWXY/HB1 |
Departure
| Time | 2026-05-07 12:20 |
|---|---|
| Airport | Frankfurt Main Airport (EDDF) |
Arrival
| Time | 2026-05-07 14:20 |
|---|---|
| Airport | Palma de Mallorca Airport (LEPA) |
| Time | Latitude | Longitude | Altitude | Speed | Heading |
|---|---|---|---|---|---|
| 2026-05-07 11:44 | 50.03849 | 8.54691 | 353 ft | 0 kts | 160° |
| 2026-05-07 12:11 | 50.03835 | 8.54699 | 358 ft | 7 kts | 159° |
| 2026-05-07 12:11 | 50.03788 | 8.54727 | 355 ft | 4 kts | 159° |
| 2026-05-07 12:12 | 50.03763 | 8.54712 | 355 ft | 5 kts | 231° |
| 2026-05-07 12:12 | 50.03746 | 8.54676 | 352 ft | 0 kts | 242° |
| 2026-05-07 12:13 | 50.03746 | 8.54674 | 352 ft | 1 kts | 243° |
| 2026-05-07 12:14 | 50.03725 | 8.54608 | 352 ft | 11 kts | 244° |
| 2026-05-07 12:14 | 50.03692 | 8.54473 | 354 ft | 15 kts | 252° |
| 2026-05-07 12:14 | 50.03655 | 8.54304 | 347 ft | 17 kts | 250° |
| 2026-05-07 12:14 | 50.03611 | 8.54119 | 350 ft | 19 kts | 249° |
| 2026-05-07 12:15 | 50.03561 | 8.53915 | 348 ft | 21 kts | 249° |
| 2026-05-07 12:15 | 50.03507 | 8.53690 | 348 ft | 23 kts | 250° |
| 2026-05-07 12:15 | 50.03454 | 8.53468 | 339 ft | 19 kts | 250° |
| 2026-05-07 12:15 | 50.03413 | 8.53296 | 338 ft | 14 kts | 250° |
| 2026-05-07 12:16 | 50.03375 | 8.53133 | 334 ft | 17 kts | 250° |
| 2026-05-07 12:16 | 50.03338 | 8.52979 | 337 ft | 12 kts | 249° |
| 2026-05-07 12:16 | 50.03305 | 8.52848 | 337 ft | 14 kts | 249° |
| 2026-05-07 12:16 | 50.03285 | 8.52765 | 334 ft | 4 kts | 250° |
| 2026-05-07 12:17 | 50.03267 | 8.52686 | 336 ft | 12 kts | 250° |
| 2026-05-07 12:17 | 50.03237 | 8.52602 | 337 ft | 9 kts | 208° |
| 2026-05-07 12:17 | 50.03213 | 8.52596 | 338 ft | 0 kts | 185° |
| 2026-05-07 12:19 | 50.03072 | 8.52598 | 338 ft | 59 kts | 179° |
| 2026-05-07 12:19 | 50.02393 | 8.52603 | 337 ft | 134 kts | 179° |
| 2026-05-07 12:19 | 50.01263 | 8.52594 | 488 ft | 181 kts | 179° |
| 2026-05-07 12:20 | 49.99995 | 8.52720 | 1448 ft | 180 kts | 178° |
| 2026-05-07 12:20 | 49.98717 | 8.52880 | 2115 ft | 192 kts | 175° |
| 2026-05-07 12:20 | 49.97354 | 8.53142 | 2697 ft | 195 kts | 173° |
| 2026-05-07 12:20 | 49.96028 | 8.53281 | 3552 ft | 193 kts | 183° |
| 2026-05-07 12:21 | 49.94640 | 8.53250 | 3944 ft | 213 kts | 182° |
| 2026-05-07 12:21 | 49.93096 | 8.53262 | 3939 ft | 228 kts | 180° |
| 2026-05-07 12:21 | 49.91484 | 8.53317 | 3942 ft | 234 kts | 180° |
| 2026-05-07 12:21 | 49.89852 | 8.53395 | 3992 ft | 237 kts | 179° |
| 2026-05-07 12:22 | 49.88199 | 8.53487 | 4139 ft | 239 kts | 179° |
| 2026-05-07 12:22 | 49.86534 | 8.53589 | 5009 ft | 237 kts | 179° |
| 2026-05-07 12:22 | 49.84878 | 8.53695 | 5916 ft | 241 kts | 179° |
| 2026-05-07 12:22 | 49.83183 | 8.53808 | 6740 ft | 246 kts | 179° |
| 2026-05-07 12:23 | 49.81463 | 8.53924 | 7559 ft | 249 kts | 179° |
| 2026-05-07 12:23 | 49.79720 | 8.54042 | 8401 ft | 252 kts | 179° |
| 2026-05-07 12:23 | 49.77956 | 8.54122 | 9167 ft | 259 kts | 185° |
| 2026-05-07 12:23 | 49.76104 | 8.53855 | 9650 ft | 277 kts | 188° |
| 2026-05-07 12:24 | 49.74125 | 8.53550 | 10136 ft | 293 kts | 187° |
| 2026-05-07 12:24 | 49.72040 | 8.53250 | 10584 ft | 310 kts | 187° |
| 2026-05-07 12:24 | 49.69860 | 8.52952 | 11026 ft | 325 kts | 187° |
| 2026-05-07 12:24 | 49.67572 | 8.52649 | 11673 ft | 332 kts | 186° |
| 2026-05-07 12:25 | 49.65255 | 8.52348 | 12486 ft | 336 kts | 186° |
| 2026-05-07 12:25 | 49.62909 | 8.52044 | 13231 ft | 341 kts | 186° |
| 2026-05-07 12:25 | 49.60530 | 8.51737 | 13990 ft | 345 kts | 186° |
| 2026-05-07 12:25 | 49.58126 | 8.51426 | 14683 ft | 348 kts | 186° |
| 2026-05-07 12:26 | 49.55700 | 8.51114 | 15415 ft | 351 kts | 186° |
| 2026-05-07 12:26 | 49.53257 | 8.50800 | 16129 ft | 354 kts | 186° |
| 2026-05-07 12:26 | 49.50794 | 8.50483 | 16828 ft | 357 kts | 186° |
| 2026-05-07 12:26 | 49.48302 | 8.50163 | 17511 ft | 360 kts | 186° |
| 2026-05-07 12:27 | 49.45798 | 8.49842 | 18182 ft | 363 kts | 186° |
| 2026-05-07 12:27 | 49.43269 | 8.49519 | 18762 ft | 366 kts | 187° |
| 2026-05-07 12:27 | 49.40722 | 8.49193 | 19331 ft | 369 kts | 187° |
| 2026-05-07 12:27 | 49.38152 | 8.48865 | 19882 ft | 372 kts | 187° |
| 2026-05-07 12:28 | 49.35557 | 8.48534 | 20429 ft | 375 kts | 187° |
| 2026-05-07 12:28 | 49.32984 | 8.48206 | 20966 ft | 377 kts | 187° |
| 2026-05-07 12:28 | 49.30359 | 8.47865 | 21490 ft | 380 kts | 187° |
| 2026-05-07 12:28 | 49.27714 | 8.47520 | 22022 ft | 383 kts | 187° |
| 2026-05-07 12:29 | 49.25049 | 8.47173 | 22554 ft | 385 kts | 187° |
| 2026-05-07 12:29 | 49.22366 | 8.46824 | 23075 ft | 388 kts | 187° |
| 2026-05-07 12:29 | 49.19665 | 8.46473 | 23609 ft | 391 kts | 187° |
| 2026-05-07 12:29 | 49.16941 | 8.46120 | 24047 ft | 394 kts | 187° |
| 2026-05-07 12:30 | 49.14203 | 8.45765 | 24503 ft | 396 kts | 187° |
| 2026-05-07 12:30 | 49.11451 | 8.45409 | 24948 ft | 398 kts | 187° |
| 2026-05-07 12:30 | 49.08683 | 8.45051 | 25394 ft | 400 kts | 187° |
| 2026-05-07 12:30 | 49.05908 | 8.44583 | 25817 ft | 401 kts | 194° |
| 2026-05-07 12:31 | 49.03185 | 8.43633 | 26240 ft | 403 kts | 195° |
| 2026-05-07 12:31 | 49.00445 | 8.42683 | 26664 ft | 406 kts | 195° |
| 2026-05-07 12:31 | 48.98618 | 8.42049 | 26940 ft | 407 kts | 195° |
| 2026-05-07 12:31 | 48.95852 | 8.41087 | 27358 ft | 409 kts | 195° |
| 2026-05-07 12:32 | 48.93060 | 8.40117 | 27774 ft | 412 kts | 194° |
| 2026-05-07 12:32 | 48.90259 | 8.39144 | 28192 ft | 414 kts | 194° |
| 2026-05-07 12:32 | 48.87445 | 8.38168 | 28580 ft | 416 kts | 194° |
| 2026-05-07 12:32 | 48.84610 | 8.37186 | 28991 ft | 419 kts | 194° |
| 2026-05-07 12:33 | 48.78898 | 8.35195 | 29736 ft | 423 kts | 195° |
| 2026-05-07 12:33 | 48.76022 | 8.34138 | 30107 ft | 425 kts | 195° |
| 2026-05-07 12:33 | 48.73136 | 8.33083 | 30400 ft | 428 kts | 195° |
| 2026-05-07 12:34 | 48.70269 | 8.32038 | 30680 ft | 430 kts | 195° |
| 2026-05-07 12:34 | 48.67352 | 8.30977 | 30961 ft | 432 kts | 195° |
| 2026-05-07 12:34 | 48.64425 | 8.29914 | 31275 ft | 433 kts | 195° |
| 2026-05-07 12:34 | 48.61487 | 8.28847 | 31656 ft | 433 kts | 195° |
| 2026-05-07 12:35 | 48.58553 | 8.27784 | 32017 ft | 433 kts | 195° |
| 2026-05-07 12:35 | 48.55624 | 8.26724 | 32389 ft | 433 kts | 195° |
| 2026-05-07 12:35 | 48.52693 | 8.25665 | 32755 ft | 433 kts | 195° |
| 2026-05-07 12:35 | 48.49759 | 8.24604 | 33036 ft | 434 kts | 195° |
| 2026-05-07 12:36 | 48.46400 | 8.23375 | 33056 ft | 432 kts | 195° |
| 2026-05-07 12:36 | 48.42352 | 8.21895 | 33045 ft | 431 kts | 195° |
| 2026-05-07 12:37 | 48.36521 | 8.19770 | 33035 ft | 431 kts | 195° |
| 2026-05-07 12:37 | 48.30694 | 8.17651 | 33056 ft | 431 kts | 195° |
| 2026-05-07 12:38 | 48.24907 | 8.15485 | 33040 ft | 430 kts | 201° |
| 2026-05-07 12:38 | 48.19540 | 8.11649 | 33039 ft | 428 kts | 208° |
| 2026-05-07 12:39 | 48.14199 | 8.07723 | 33032 ft | 427 kts | 208° |
| 2026-05-07 12:39 | 48.08864 | 8.03789 | 33039 ft | 427 kts | 208° |
| 2026-05-07 12:40 | 48.03529 | 7.99862 | 33045 ft | 427 kts | 208° |
| 2026-05-07 12:40 | 47.98226 | 7.95967 | 33031 ft | 427 kts | 208° |
| 2026-05-07 12:41 | 47.92892 | 7.92058 | 33032 ft | 427 kts | 208° |
| 2026-05-07 12:41 | 47.87553 | 7.88156 | 33037 ft | 427 kts | 208° |
| 2026-05-07 12:42 | 47.82217 | 7.84265 | 33039 ft | 427 kts | 208° |
| 2026-05-07 12:42 | 47.76889 | 7.80387 | 33032 ft | 426 kts | 208° |
| 2026-05-07 12:43 | 47.71562 | 7.76519 | 33024 ft | 426 kts | 208° |
| 2026-05-07 12:43 | 47.66257 | 7.72676 | 33017 ft | 426 kts | 208° |
| 2026-05-07 12:44 | 47.60917 | 7.68818 | 33024 ft | 426 kts | 208° |
| 2026-05-07 12:44 | 47.55588 | 7.64975 | 33024 ft | 426 kts | 208° |
| 2026-05-07 12:45 | 47.50525 | 7.61332 | 33019 ft | 425 kts | 208° |
| 2026-05-07 12:45 | 47.45228 | 7.57530 | 33020 ft | 425 kts | 208° |
| 2026-05-07 12:46 | 47.39896 | 7.53712 | 33021 ft | 425 kts | 208° |
| 2026-05-07 12:46 | 47.34579 | 7.49911 | 33021 ft | 424 kts | 208° |
| 2026-05-07 12:47 | 47.29253 | 7.46113 | 33015 ft | 424 kts | 208° |
| 2026-05-07 12:47 | 47.23967 | 7.42352 | 33018 ft | 424 kts | 208° |
| 2026-05-07 12:48 | 47.18658 | 7.38570 | 33015 ft | 423 kts | 210° |
| 2026-05-07 12:48 | 47.16283 | 7.36100 | 33006 ft | 415 kts | 228° |
| 2026-05-07 12:48 | 47.14407 | 7.32891 | 33025 ft | 415 kts | 232° |
| 2026-05-07 12:49 | 47.10733 | 7.26344 | 33020 ft | 415 kts | 233° |
| 2026-05-07 12:49 | 47.07115 | 7.19744 | 33023 ft | 415 kts | 233° |
| 2026-05-07 12:50 | 47.03516 | 7.13147 | 33017 ft | 414 kts | 233° |
| 2026-05-07 12:50 | 46.99909 | 7.06543 | 33019 ft | 414 kts | 233° |
| 2026-05-07 12:51 | 46.96332 | 7.00011 | 33017 ft | 413 kts | 233° |
| 2026-05-07 12:51 | 46.92733 | 6.93453 | 33019 ft | 412 kts | 233° |
| 2026-05-07 12:52 | 46.88620 | 6.87615 | 33021 ft | 415 kts | 222° |
| 2026-05-07 12:52 | 46.84147 | 6.82246 | 33025 ft | 416 kts | 222° |
| 2026-05-07 12:53 | 46.79658 | 6.76899 | 33013 ft | 415 kts | 222° |
| 2026-05-07 12:53 | 46.75178 | 6.71578 | 33014 ft | 415 kts | 223° |
| 2026-05-07 12:54 | 46.70704 | 6.66275 | 33018 ft | 414 kts | 223° |
| 2026-05-07 12:54 | 46.66255 | 6.61013 | 33010 ft | 414 kts | 223° |
| 2026-05-07 12:55 | 46.61778 | 6.55731 | 33005 ft | 413 kts | 223° |
| 2026-05-07 12:55 | 46.57306 | 6.50465 | 32999 ft | 413 kts | 223° |
| 2026-05-07 12:56 | 46.52837 | 6.45216 | 32999 ft | 413 kts | 223° |
| 2026-05-07 12:56 | 46.48398 | 6.40012 | 32998 ft | 412 kts | 223° |
| 2026-05-07 12:57 | 46.43939 | 6.34796 | 32995 ft | 411 kts | 223° |
| 2026-05-07 12:57 | 46.39485 | 6.29599 | 32995 ft | 411 kts | 222° |
| 2026-05-07 12:58 | 46.35034 | 6.24414 | 32989 ft | 410 kts | 222° |
| 2026-05-07 12:58 | 46.30588 | 6.19245 | 32993 ft | 410 kts | 222° |
| 2026-05-07 12:59 | 46.26037 | 6.14281 | 32979 ft | 413 kts | 210° |
| 2026-05-07 12:59 | 46.23297 | 6.12954 | 32998 ft | 421 kts | 194° |
| 2026-05-07 12:59 | 46.20395 | 6.12229 | 32985 ft | 424 kts | 194° |
| 2026-05-07 13:00 | 46.14571 | 6.10832 | 32993 ft | 424 kts | 194° |
| 2026-05-07 13:00 | 46.08784 | 6.09528 | 32993 ft | 423 kts | 193° |
| 2026-05-07 13:01 | 46.02963 | 6.08236 | 32993 ft | 423 kts | 194° |
| 2026-05-07 13:01 | 45.97154 | 6.06952 | 32994 ft | 422 kts | 194° |
| 2026-05-07 13:02 | 45.91339 | 6.05668 | 32993 ft | 422 kts | 194° |
| 2026-05-07 13:02 | 45.85536 | 6.04389 | 32990 ft | 421 kts | 194° |
| 2026-05-07 13:03 | 45.79776 | 6.03115 | 32991 ft | 421 kts | 194° |
| 2026-05-07 13:03 | 45.73953 | 6.01830 | 32992 ft | 420 kts | 194° |
| 2026-05-07 13:04 | 45.68204 | 6.00564 | 32971 ft | 419 kts | 194° |
| 2026-05-07 13:04 | 45.62437 | 5.99296 | 32992 ft | 420 kts | 194° |
| 2026-05-07 13:05 | 45.56667 | 5.98031 | 33007 ft | 420 kts | 194° |
| 2026-05-07 13:05 | 45.50892 | 5.96767 | 32985 ft | 419 kts | 194° |
| 2026-05-07 13:06 | 45.45204 | 5.95187 | 32984 ft | 415 kts | 198° |
| 2026-05-07 13:06 | 45.39555 | 5.93382 | 32984 ft | 415 kts | 198° |
| 2026-05-07 13:07 | 45.33926 | 5.91627 | 32975 ft | 414 kts | 198° |
| 2026-05-07 13:07 | 45.28288 | 5.89877 | 32955 ft | 414 kts | 198° |
| 2026-05-07 13:08 | 45.22648 | 5.88133 | 32974 ft | 415 kts | 198° |
| 2026-05-07 13:08 | 45.17011 | 5.86392 | 32967 ft | 414 kts | 198° |
| 2026-05-07 13:09 | 45.11387 | 5.84658 | 32971 ft | 414 kts | 198° |
| 2026-05-07 13:09 | 45.05797 | 5.82938 | 32948 ft | 413 kts | 198° |
| 2026-05-07 13:10 | 45.00183 | 5.81215 | 32974 ft | 413 kts | 198° |
| 2026-05-07 13:10 | 44.94567 | 5.79494 | 32949 ft | 412 kts | 198° |
| 2026-05-07 13:11 | 44.88961 | 5.77780 | 32954 ft | 412 kts | 198° |
| 2026-05-07 13:11 | 44.83366 | 5.76073 | 32963 ft | 411 kts | 197° |
| 2026-05-07 13:12 | 44.77778 | 5.74371 | 32952 ft | 410 kts | 197° |
| 2026-05-07 13:12 | 44.73144 | 5.72962 | 32953 ft | 410 kts | 197° |
| 2026-05-07 13:13 | 44.66655 | 5.70993 | 32966 ft | 410 kts | 197° |
| 2026-05-07 13:13 | 44.61986 | 5.69579 | 32954 ft | 409 kts | 197° |
| 2026-05-07 13:14 | 44.56458 | 5.67908 | 32946 ft | 409 kts | 197° |
| 2026-05-07 13:14 | 44.50901 | 5.66232 | 32942 ft | 408 kts | 197° |
| 2026-05-07 13:15 | 44.45347 | 5.64559 | 32949 ft | 408 kts | 197° |
| 2026-05-07 13:15 | 44.39794 | 5.62890 | 32955 ft | 408 kts | 197° |
| 2026-05-07 13:16 | 44.34486 | 5.60409 | 32947 ft | 401 kts | 206° |
| 2026-05-07 13:16 | 44.29284 | 5.57567 | 32955 ft | 402 kts | 206° |
| 2026-05-07 13:17 | 44.24083 | 5.54723 | 32962 ft | 401 kts | 206° |
| 2026-05-07 13:17 | 44.18895 | 5.51889 | 32941 ft | 399 kts | 206° |
| 2026-05-07 13:18 | 44.13746 | 5.49082 | 32972 ft | 400 kts | 205° |
| 2026-05-07 13:18 | 44.08568 | 5.46265 | 32961 ft | 399 kts | 205° |
| 2026-05-07 13:19 | 44.03389 | 5.43452 | 32962 ft | 399 kts | 205° |
| 2026-05-07 13:19 | 43.98218 | 5.40649 | 32961 ft | 398 kts | 205° |
| 2026-05-07 13:20 | 43.93053 | 5.37851 | 32957 ft | 398 kts | 205° |
| 2026-05-07 13:20 | 43.87897 | 5.35063 | 32962 ft | 398 kts | 205° |
| 2026-05-07 13:21 | 43.82740 | 5.32280 | 32961 ft | 397 kts | 205° |
| 2026-05-07 13:21 | 43.77620 | 5.29522 | 32960 ft | 397 kts | 205° |
| 2026-05-07 13:22 | 43.72473 | 5.26754 | 32961 ft | 396 kts | 205° |
| 2026-05-07 13:22 | 43.67334 | 5.23996 | 32972 ft | 396 kts | 205° |
| 2026-05-07 13:23 | 43.62202 | 5.21246 | 32966 ft | 395 kts | 205° |
| 2026-05-07 13:23 | 43.57077 | 5.18506 | 32963 ft | 395 kts | 205° |
| 2026-05-07 13:24 | 43.51956 | 5.15773 | 32969 ft | 394 kts | 205° |
| 2026-05-07 13:24 | 43.46847 | 5.13051 | 32991 ft | 394 kts | 205° |
| 2026-05-07 13:25 | 43.41767 | 5.10348 | 32995 ft | 393 kts | 205° |
| 2026-05-07 13:25 | 43.36925 | 5.07026 | 33002 ft | 386 kts | 218° |
| 2026-05-07 13:26 | 43.32466 | 5.02848 | 32999 ft | 387 kts | 217° |
| 2026-05-07 13:26 | 43.28038 | 4.98693 | 32993 ft | 386 kts | 217° |
| 2026-05-07 13:27 | 43.23600 | 4.94522 | 32993 ft | 386 kts | 217° |
| 2026-05-07 13:27 | 43.19178 | 4.90372 | 32995 ft | 385 kts | 217° |
| 2026-05-07 13:28 | 43.14756 | 4.86230 | 32994 ft | 384 kts | 217° |
| 2026-05-07 13:28 | 43.10340 | 4.82100 | 32989 ft | 384 kts | 217° |
| 2026-05-07 13:29 | 43.05953 | 4.78021 | 32991 ft | 384 kts | 214° |
| 2026-05-07 13:29 | 43.01251 | 4.74531 | 32993 ft | 384 kts | 212° |
| 2026-05-07 13:30 | 42.96580 | 4.71009 | 32997 ft | 383 kts | 212° |
| 2026-05-07 13:30 | 42.91928 | 4.67479 | 32995 ft | 382 kts | 212° |
| 2026-05-07 13:31 | 42.87285 | 4.63959 | 32997 ft | 381 kts | 212° |
| 2026-05-07 13:31 | 42.82684 | 4.60475 | 32996 ft | 381 kts | 212° |
| 2026-05-07 13:32 | 42.78050 | 4.56973 | 32996 ft | 380 kts | 212° |
| 2026-05-07 13:32 | 42.73426 | 4.53484 | 32996 ft | 380 kts | 212° |
| 2026-05-07 13:33 | 42.68808 | 4.50007 | 32999 ft | 379 kts | 212° |
| 2026-05-07 13:33 | 42.64191 | 4.46534 | 32997 ft | 378 kts | 212° |
| 2026-05-07 13:34 | 42.57283 | 4.41351 | 33002 ft | 377 kts | 212° |
| 2026-05-07 13:35 | 42.52725 | 4.37939 | 32997 ft | 376 kts | 212° |
| 2026-05-07 13:35 | 42.48149 | 4.34519 | 32999 ft | 375 kts | 212° |
| 2026-05-07 13:36 | 42.43584 | 4.31112 | 33000 ft | 374 kts | 212° |
| 2026-05-07 13:36 | 42.39019 | 4.27712 | 33002 ft | 373 kts | 212° |
| 2026-05-07 13:37 | 42.34468 | 4.24327 | 33003 ft | 373 kts | 212° |
| 2026-05-07 13:37 | 42.29954 | 4.20976 | 32997 ft | 372 kts | 212° |
| 2026-05-07 13:38 | 42.25424 | 4.17618 | 32996 ft | 371 kts | 212° |
| 2026-05-07 13:38 | 42.20903 | 4.14271 | 32996 ft | 370 kts | 212° |
| 2026-05-07 13:39 | 42.16395 | 4.10946 | 32996 ft | 369 kts | 212° |
| 2026-05-07 13:39 | 42.11896 | 4.07639 | 32999 ft | 368 kts | 212° |
| 2026-05-07 13:40 | 42.07410 | 4.04347 | 32996 ft | 367 kts | 212° |
| 2026-05-07 13:40 | 42.02931 | 4.01065 | 32997 ft | 366 kts | 212° |
| 2026-05-07 13:41 | 41.98462 | 3.97795 | 32994 ft | 365 kts | 212° |
| 2026-05-07 13:41 | 41.93997 | 3.94535 | 32997 ft | 364 kts | 212° |
| 2026-05-07 13:41 | 41.91617 | 3.93308 | 32990 ft | 372 kts | 197° |
| 2026-05-07 13:42 | 41.89092 | 3.92713 | 32995 ft | 374 kts | 198° |
| 2026-05-07 13:42 | 41.83976 | 3.91441 | 32994 ft | 374 kts | 197° |
| 2026-05-07 13:43 | 41.78855 | 3.90238 | 32995 ft | 373 kts | 197° |
| 2026-05-07 13:43 | 41.73730 | 3.89054 | 32996 ft | 373 kts | 197° |
| 2026-05-07 13:44 | 41.68615 | 3.87878 | 32998 ft | 372 kts | 196° |
| 2026-05-07 13:44 | 41.63514 | 3.86706 | 32991 ft | 372 kts | 196° |
| 2026-05-07 13:45 | 41.58412 | 3.85534 | 32993 ft | 372 kts | 196° |
| 2026-05-07 13:45 | 41.53318 | 3.84365 | 32995 ft | 371 kts | 196° |
| 2026-05-07 13:46 | 41.48230 | 3.83199 | 32989 ft | 370 kts | 196° |
| 2026-05-07 13:46 | 41.43156 | 3.82037 | 32985 ft | 370 kts | 196° |
| 2026-05-07 13:47 | 41.38087 | 3.80879 | 32988 ft | 369 kts | 196° |
| 2026-05-07 13:47 | 41.33070 | 3.79735 | 32986 ft | 369 kts | 196° |
| 2026-05-07 13:48 | 41.28020 | 3.78584 | 32984 ft | 368 kts | 195° |
| 2026-05-07 13:48 | 41.22975 | 3.77437 | 32983 ft | 368 kts | 195° |
| 2026-05-07 13:49 | 41.17928 | 3.76291 | 32980 ft | 367 kts | 195° |
| 2026-05-07 13:49 | 41.13074 | 3.74511 | 32985 ft | 360 kts | 205° |
| 2026-05-07 13:50 | 41.08394 | 3.72123 | 32982 ft | 360 kts | 205° |
| 2026-05-07 13:50 | 41.03720 | 3.69721 | 32980 ft | 360 kts | 205° |
| 2026-05-07 13:51 | 40.99047 | 3.67317 | 32978 ft | 360 kts | 205° |
| 2026-05-07 13:51 | 40.94374 | 3.64916 | 32977 ft | 360 kts | 205° |
| 2026-05-07 13:52 | 40.89763 | 3.62551 | 32982 ft | 342 kts | 205° |
| 2026-05-07 13:52 | 40.87591 | 3.61438 | 32997 ft | 326 kts | 205° |
| 2026-05-07 13:52 | 40.85517 | 3.60376 | 32878 ft | 315 kts | 205° |
| 2026-05-07 13:52 | 40.83471 | 3.59328 | 32271 ft | 317 kts | 205° |
| 2026-05-07 13:53 | 40.81458 | 3.58299 | 32016 ft | 313 kts | 205° |
| 2026-05-07 13:53 | 40.79396 | 3.57245 | 31839 ft | 322 kts | 205° |
| 2026-05-07 13:53 | 40.77282 | 3.56165 | 31490 ft | 328 kts | 205° |
| 2026-05-07 13:53 | 40.75150 | 3.55077 | 31071 ft | 329 kts | 205° |
| 2026-05-07 13:54 | 40.73016 | 3.53989 | 30648 ft | 328 kts | 205° |
| 2026-05-07 13:54 | 40.70887 | 3.52903 | 30227 ft | 328 kts | 205° |
| 2026-05-07 13:54 | 40.68761 | 3.51821 | 29778 ft | 327 kts | 205° |
| 2026-05-07 13:54 | 40.66639 | 3.50741 | 29328 ft | 326 kts | 205° |
| 2026-05-07 13:55 | 40.65240 | 3.50029 | 29058 ft | 326 kts | 205° |
| 2026-05-07 13:55 | 40.62439 | 3.48606 | 28537 ft | 325 kts | 205° |
| 2026-05-07 13:55 | 40.60329 | 3.47534 | 28152 ft | 324 kts | 205° |
| 2026-05-07 13:55 | 40.58229 | 3.46468 | 27778 ft | 324 kts | 205° |
| 2026-05-07 13:56 | 40.56132 | 3.45404 | 27403 ft | 323 kts | 205° |
| 2026-05-07 13:56 | 40.54712 | 3.44684 | 27154 ft | 323 kts | 205° |
| 2026-05-07 13:56 | 40.52642 | 3.43636 | 26796 ft | 322 kts | 205° |
| 2026-05-07 13:56 | 40.50553 | 3.42578 | 26435 ft | 322 kts | 204° |
| 2026-05-07 13:57 | 40.48460 | 3.41518 | 26080 ft | 321 kts | 204° |
| 2026-05-07 13:57 | 40.46378 | 3.40465 | 25730 ft | 321 kts | 205° |
| 2026-05-07 13:57 | 40.44259 | 3.39545 | 25333 ft | 324 kts | 194° |
| 2026-05-07 13:57 | 40.41979 | 3.39479 | 24969 ft | 329 kts | 183° |
| 2026-05-07 13:58 | 40.39706 | 3.39566 | 24620 ft | 326 kts | 184° |
| 2026-05-07 13:58 | 40.37444 | 3.39659 | 24272 ft | 324 kts | 184° |
| 2026-05-07 13:58 | 40.35198 | 3.39766 | 23928 ft | 322 kts | 184° |
| 2026-05-07 13:58 | 40.32967 | 3.39883 | 23590 ft | 320 kts | 183° |
| 2026-05-07 13:59 | 40.30747 | 3.40005 | 23205 ft | 319 kts | 183° |
| 2026-05-07 13:59 | 40.28539 | 3.40129 | 22826 ft | 316 kts | 182° |
| 2026-05-07 13:59 | 40.26356 | 3.40252 | 22488 ft | 313 kts | 182° |
| 2026-05-07 13:59 | 40.24191 | 3.40375 | 22165 ft | 310 kts | 182° |
| 2026-05-07 14:00 | 40.22013 | 3.40498 | 21824 ft | 316 kts | 181° |
| 2026-05-07 14:00 | 40.19800 | 3.40623 | 21476 ft | 320 kts | 181° |
| 2026-05-07 14:00 | 40.17577 | 3.40749 | 21160 ft | 320 kts | 181° |
| 2026-05-07 14:00 | 40.15360 | 3.40874 | 20831 ft | 318 kts | 180° |
| 2026-05-07 14:01 | 40.13183 | 3.40997 | 20502 ft | 317 kts | 180° |
| 2026-05-07 14:01 | 40.10983 | 3.41122 | 20148 ft | 316 kts | 180° |
| 2026-05-07 14:01 | 40.08798 | 3.41245 | 19833 ft | 313 kts | 180° |
| 2026-05-07 14:01 | 40.06634 | 3.41367 | 19536 ft | 309 kts | 180° |
| 2026-05-07 14:02 | 40.04495 | 3.41488 | 19228 ft | 306 kts | 180° |
| 2026-05-07 14:02 | 40.02371 | 3.41608 | 18923 ft | 304 kts | 179° |
| 2026-05-07 14:02 | 40.00268 | 3.41726 | 18618 ft | 301 kts | 179° |
| 2026-05-07 14:02 | 39.98183 | 3.41844 | 18306 ft | 299 kts | 179° |
| 2026-05-07 14:03 | 39.96115 | 3.41960 | 17968 ft | 296 kts | 179° |
| 2026-05-07 14:03 | 39.94065 | 3.42075 | 17636 ft | 293 kts | 179° |
| 2026-05-07 14:03 | 39.92040 | 3.42189 | 17327 ft | 290 kts | 179° |
| 2026-05-07 14:03 | 39.90037 | 3.42302 | 17025 ft | 286 kts | 179° |
| 2026-05-07 14:04 | 39.88040 | 3.42413 | 16725 ft | 290 kts | 179° |
| 2026-05-07 14:04 | 39.86005 | 3.42528 | 16410 ft | 295 kts | 178° |
| 2026-05-07 14:04 | 39.83949 | 3.42643 | 16108 ft | 296 kts | 178° |
| 2026-05-07 14:04 | 39.81888 | 3.42759 | 15811 ft | 296 kts | 178° |
| 2026-05-07 14:05 | 39.79832 | 3.42874 | 15500 ft | 294 kts | 178° |
| 2026-05-07 14:05 | 39.77796 | 3.42988 | 15200 ft | 291 kts | 178° |
| 2026-05-07 14:05 | 39.75778 | 3.43101 | 14894 ft | 289 kts | 178° |
| 2026-05-07 14:05 | 39.73778 | 3.43213 | 14599 ft | 286 kts | 178° |
| 2026-05-07 14:06 | 39.71798 | 3.43132 | 14257 ft | 285 kts | 192° |
| 2026-05-07 14:06 | 39.70003 | 3.42078 | 13913 ft | 286 kts | 216° |
| 2026-05-07 14:06 | 39.68676 | 3.40162 | 13606 ft | 287 kts | 237° |
| 2026-05-07 14:06 | 39.67730 | 3.37891 | 13290 ft | 286 kts | 239° |
| 2026-05-07 14:07 | 39.66813 | 3.35611 | 12968 ft | 284 kts | 240° |
| 2026-05-07 14:07 | 39.65915 | 3.33342 | 12669 ft | 281 kts | 240° |
| 2026-05-07 14:07 | 39.65025 | 3.31071 | 12376 ft | 285 kts | 240° |
| 2026-05-07 14:07 | 39.64128 | 3.28765 | 12063 ft | 290 kts | 240° |
| 2026-05-07 14:08 | 39.63218 | 3.26419 | 11751 ft | 292 kts | 240° |
| 2026-05-07 14:08 | 39.62307 | 3.24065 | 11456 ft | 293 kts | 240° |
| 2026-05-07 14:08 | 39.61392 | 3.21700 | 11107 ft | 293 kts | 240° |
| 2026-05-07 14:08 | 39.60480 | 3.19341 | 10817 ft | 291 kts | 241° |
| 2026-05-07 14:09 | 39.59577 | 3.17008 | 10525 ft | 289 kts | 241° |
| 2026-05-07 14:09 | 39.58678 | 3.14687 | 10225 ft | 287 kts | 241° |
| 2026-05-07 14:09 | 39.57801 | 3.12425 | 10063 ft | 280 kts | 241° |
| 2026-05-07 14:09 | 39.56931 | 3.10185 | 9799 ft | 277 kts | 241° |
| 2026-05-07 14:10 | 39.56065 | 3.07956 | 9471 ft | 276 kts | 241° |
| 2026-05-07 14:10 | 39.55205 | 3.05741 | 9161 ft | 274 kts | 241° |
| 2026-05-07 14:10 | 39.54350 | 3.03541 | 8860 ft | 272 kts | 242° |
| 2026-05-07 14:10 | 39.53500 | 3.01359 | 8571 ft | 271 kts | 241° |
| 2026-05-07 14:11 | 39.52654 | 2.99186 | 8287 ft | 269 kts | 242° |
| 2026-05-07 14:11 | 39.51814 | 2.97031 | 8009 ft | 267 kts | 242° |
| 2026-05-07 14:11 | 39.50977 | 2.94885 | 7721 ft | 266 kts | 241° |
| 2026-05-07 14:11 | 39.50146 | 2.92757 | 7456 ft | 264 kts | 241° |
| 2026-05-07 14:12 | 39.49318 | 2.90635 | 7180 ft | 266 kts | 242° |
| 2026-05-07 14:12 | 39.48473 | 2.88472 | 6913 ft | 271 kts | 242° |
| 2026-05-07 14:12 | 39.47615 | 2.86282 | 6622 ft | 274 kts | 242° |
| 2026-05-07 14:12 | 39.46752 | 2.84076 | 6330 ft | 274 kts | 242° |
| 2026-05-07 14:13 | 39.45892 | 2.81879 | 6021 ft | 273 kts | 242° |
| 2026-05-07 14:13 | 39.45031 | 2.79684 | 5708 ft | 273 kts | 242° |
| 2026-05-07 14:13 | 39.44174 | 2.77497 | 5414 ft | 272 kts | 242° |
| 2026-05-07 14:13 | 39.43477 | 2.75232 | 5088 ft | 274 kts | 259° |
| 2026-05-07 14:14 | 39.43258 | 2.72782 | 4770 ft | 273 kts | 263° |
| 2026-05-07 14:14 | 39.43038 | 2.70390 | 4458 ft | 263 kts | 262° |
| 2026-05-07 14:14 | 39.42816 | 2.68061 | 4199 ft | 260 kts | 262° |
| 2026-05-07 14:14 | 39.42591 | 2.65778 | 4060 ft | 258 kts | 262° |
| 2026-05-07 14:15 | 39.42360 | 2.63470 | 3925 ft | 258 kts | 262° |
| 2026-05-07 14:15 | 39.42128 | 2.61172 | 3796 ft | 257 kts | 262° |
| 2026-05-07 14:15 | 39.41896 | 2.58886 | 3648 ft | 254 kts | 263° |
| 2026-05-07 14:15 | 39.42057 | 2.56698 | 3453 ft | 239 kts | 294° |
| 2026-05-07 14:16 | 39.43017 | 2.55071 | 3276 ft | 223 kts | 327° |
| 2026-05-07 14:16 | 39.44421 | 2.54338 | 3079 ft | 216 kts | 358° |
| 2026-05-07 14:16 | 39.45853 | 2.54638 | 2972 ft | 210 kts | 28° |
| 2026-05-07 14:16 | 39.47048 | 2.55657 | 2765 ft | 202 kts | 42° |
| 2026-05-07 14:17 | 39.48006 | 2.56938 | 2514 ft | 194 kts | 54° |
| 2026-05-07 14:17 | 39.48720 | 2.58333 | 2290 ft | 174 kts | 62° |
| 2026-05-07 14:17 | 39.49296 | 2.59598 | 2068 ft | 153 kts | 61° |
| 2026-05-07 14:17 | 39.49832 | 2.60749 | 1866 ft | 144 kts | 61° |
| 2026-05-07 14:18 | 39.50341 | 2.61827 | 1707 ft | 138 kts | 60° |
| 2026-05-07 14:18 | 39.50834 | 2.62872 | 1498 ft | 135 kts | 60° |
| 2026-05-07 14:18 | 39.51317 | 2.63892 | 1317 ft | 135 kts | 60° |
| 2026-05-07 14:18 | 39.51811 | 2.64940 | 1154 ft | 134 kts | 59° |
| 2026-05-07 14:19 | 39.52295 | 2.65962 | 965 ft | 132 kts | 60° |
| 2026-05-07 14:19 | 39.52776 | 2.66981 | 798 ft | 133 kts | 60° |
| 2026-05-07 14:19 | 39.53259 | 2.68001 | 628 ft | 133 kts | 59° |
| 2026-05-07 14:19 | 39.53736 | 2.69008 | 423 ft | 132 kts | 59° |
| 2026-05-07 14:20 | 39.54208 | 2.70008 | 262 ft | 130 kts | 59° |
| 2026-05-07 14:20 | 39.54687 | 2.71022 | 85 ft | 133 kts | 59° |
| 2026-05-07 14:20 | 39.55130 | 2.71964 | 33 ft | 100 kts | 57° |
| 2026-05-07 14:20 | 39.55385 | 2.72481 | 32 ft | 42 kts | 58° |
| 2026-05-07 14:21 | 39.55505 | 2.72767 | 32 ft | 30 kts | 86° |
| 2026-05-07 14:21 | 39.55447 | 2.72905 | 32 ft | 7 kts | 128° |
| 2026-05-07 14:21 | 39.55446 | 2.72906 | 32 ft | 0 kts | 128° |
| 2026-05-07 14:22 | 39.55438 | 2.72920 | 32 ft | 4 kts | 128° |
| 2026-05-07 14:23 | 39.55429 | 2.72934 | 32 ft | 2 kts | 130° |
| 2026-05-07 14:23 | 39.55414 | 2.72954 | 32 ft | 5 kts | 140° |
| 2026-05-07 14:23 | 39.55387 | 2.72973 | 32 ft | 0 kts | 160° |
| 2026-05-07 14:24 | 39.55386 | 2.72973 | 32 ft | 1 kts | 160° |
| 2026-05-07 14:24 | 39.55352 | 2.72992 | 32 ft | 10 kts | 152° |
| 2026-05-07 14:24 | 39.55297 | 2.73032 | 32 ft | 6 kts | 155° |
| 2026-05-07 14:24 | 39.55246 | 2.73013 | 32 ft | 12 kts | 222° |
| 2026-05-07 14:25 | 39.55184 | 2.72899 | 32 ft | 17 kts | 237° |
| 2026-05-07 14:25 | 39.55131 | 2.72786 | 32 ft | 6 kts | 238° |
| 2026-05-07 14:25 | 39.55115 | 2.72769 | 32 ft | 1 kts | 189° |
| 2026-05-07 14:25 | 39.55095 | 2.72767 | 32 ft | 4 kts | 174° |
| 2026-05-07 14:26 | 39.55067 | 2.72790 | 32 ft | 6 kts | 146° |
| 2026-05-07 14:26 | 39.55054 | 2.72801 | 32 ft | 0 kts | 148° |